createdAt,value
2017-05-31T00:00:10.995Z,50.66
2017-05-31T00:02:39.995Z,53.06
2017-05-31T00:05:08.122Z,49.98
2017-05-31T00:07:36.977Z,50.70
2017-05-31T00:10:05.334Z,49.52
2017-05-31T00:12:33.515Z,46.76
2017-05-31T00:15:02.453Z,48.12
2017-05-31T00:17:31.454Z,47.82
2017-05-31T00:20:00.314Z,48.76
2017-05-31T00:22:29.234Z,48.18
2017-05-31T00:24:58.285Z,46.50
2017-05-31T00:27:26.474Z,46.44
2017-05-31T00:29:54.645Z,41.92
2017-05-31T00:32:23.790Z,41.66
2017-05-31T00:34:51.969Z,42.74
2017-05-31T00:37:20.149Z,43.42
2017-05-31T00:39:48.413Z,44.62
2017-05-31T00:42:17.322Z,44.36
2017-05-31T00:44:45.489Z,46.02
2017-05-31T00:47:13.805Z,44.52
2017-05-31T00:49:42.761Z,45.74
2017-05-31T00:52:11.145Z,44.14
2017-05-31T00:54:40.249Z,47.16
2017-05-31T00:57:09.213Z,47.38
2017-05-31T00:59:37.400Z,43.36
2017-05-31T01:02:06.454Z,43.24
2017-05-31T01:04:34.670Z,47.02
2017-05-31T01:07:02.791Z,45.42
2017-05-31T01:09:31.061Z,45.02
2017-05-31T01:11:59.146Z,45.78
2017-05-31T01:14:28.074Z,47.22
2017-05-31T01:16:56.365Z,45.90
2017-05-31T01:19:24.494Z,49.18
2017-05-31T01:21:53.409Z,45.84
2017-05-31T01:24:21.698Z,46.86
2017-05-31T01:26:50.654Z,46.32
2017-05-31T01:29:18.824Z,41.42
2017-05-31T01:31:47.089Z,45.00
2017-05-31T01:34:16.073Z,46.20
2017-05-31T01:36:44.261Z,52.36
2017-05-31T01:39:13.317Z,45.76
2017-05-31T01:41:41.553Z,50.92
2017-05-31T01:44:10.469Z,47.18
2017-05-31T01:46:38.710Z,49.08
2017-05-31T01:49:07.607Z,50.96
2017-05-31T01:51:35.890Z,48.76
2017-05-31T01:54:04.382Z,45.88
2017-05-31T01:56:33.359Z,46.36
2017-05-31T01:59:01.441Z,47.34
2017-05-31T02:01:30.489Z,44.42
2017-05-31T02:03:58.674Z,51.32
2017-05-31T02:06:27.699Z,46.74
2017-05-31T02:08:56.075Z,47.32
2017-05-31T02:11:24.258Z,44.00
2017-05-31T02:13:53.234Z,50.68
2017-05-31T02:16:21.512Z,52.88
2017-05-31T02:18:49.694Z,52.80
2017-05-31T02:21:17.825Z,52.26
2017-05-31T02:23:46.877Z,54.58
2017-05-31T02:26:15.098Z,55.90
2017-05-31T02:28:43.269Z,58.90
2017-05-31T02:31:12.318Z,54.94
2017-05-31T02:33:40.505Z,58.04
2017-05-31T02:36:08.698Z,59.12
2017-05-31T02:38:36.967Z,48.84
2017-05-31T02:41:05.945Z,44.00
2017-05-31T02:43:34.909Z,41.82
2017-05-31T02:46:03.965Z,39.26
2017-05-31T02:48:32.207Z,40.96
2017-05-31T02:51:01.152Z,34.46
2017-05-31T02:53:30.429Z,40.54
2017-05-31T02:55:59.421Z,43.12
2017-05-31T02:58:27.565Z,43.18
2017-05-31T03:00:55.914Z,43.78
2017-05-31T03:03:24.786Z,42.24
2017-05-31T03:05:52.965Z,42.40
2017-05-31T03:08:21.279Z,42.68
2017-05-31T03:10:50.198Z,41.56
2017-05-31T03:13:18.802Z,37.46
2017-05-31T03:15:47.942Z,33.32
2017-05-31T03:18:16.118Z,37.48
2017-05-31T03:20:44.381Z,34.30
2017-05-31T03:23:13.395Z,31.18
2017-05-31T03:25:41.606Z,29.50
2017-05-31T03:28:10.577Z,32.16
2017-05-31T03:30:38.944Z,32.58
2017-05-31T03:33:07.932Z,29.58
2017-05-31T03:35:36.062Z,28.82
2017-05-31T03:38:05.109Z,28.06
2017-05-31T03:40:33.285Z,30.50
2017-05-31T03:43:02.270Z,31.56
2017-05-31T03:45:30.601Z,29.70
2017-05-31T03:47:59.501Z,30.10
2017-05-31T03:50:27.713Z,28.32
2017-05-31T03:52:56.130Z,28.76
2017-05-31T03:55:25.046Z,32.24
2017-05-31T03:57:53.306Z,29.56
2017-05-31T04:00:22.402Z,28.20
2017-05-31T04:02:50.669Z,23.22
2017-05-31T04:05:18.961Z,24.90
2017-05-31T04:07:47.370Z,22.20
2017-05-31T04:10:16.333Z,19.82
2017-05-31T04:12:45.305Z,19.32
2017-05-31T04:15:14.355Z,18.88
2017-05-31T04:17:43.265Z,17.52
2017-05-31T04:20:11.484Z,19.14
2017-05-31T04:22:40.577Z,19.34
2017-05-31T04:25:08.741Z,17.26
2017-05-31T04:27:37.605Z,18.04
2017-05-31T04:30:05.926Z,18.72
2017-05-31T04:32:34.809Z,19.10
2017-05-31T04:35:03.026Z,18.06
2017-05-31T04:37:32.127Z,19.60
2017-05-31T04:40:00.398Z,18.76
2017-05-31T04:42:29.422Z,19.38
2017-05-31T04:44:57.681Z,18.06
2017-05-31T04:47:25.974Z,16.74
2017-05-31T04:49:54.850Z,17.22
2017-05-31T04:52:23.919Z,17.44
2017-05-31T04:54:52.061Z,16.30
2017-05-31T04:57:21.137Z,16.88
2017-05-31T04:59:50.329Z,15.20
2017-05-31T05:02:19.197Z,16.48
2017-05-31T05:04:47.392Z,14.48
2017-05-31T05:07:15.666Z,16.06
2017-05-31T05:09:44.634Z,15.16
2017-05-31T05:12:12.858Z,13.84
2017-05-31T05:14:41.811Z,13.64
2017-05-31T05:17:10.002Z,14.18
2017-05-31T05:19:38.890Z,13.06
2017-05-31T05:22:07.167Z,14.62
2017-05-31T05:24:36.091Z,15.60
2017-05-31T05:27:04.218Z,16.74
2017-05-31T05:29:32.581Z,15.62
2017-05-31T05:32:00.774Z,16.86
2017-05-31T05:34:29.717Z,19.50
2017-05-31T05:36:58.137Z,17.48
2017-05-31T05:39:26.976Z,21.00
2017-05-31T05:41:55.942Z,20.36
2017-05-31T05:44:24.246Z,18.36
2017-05-31T05:46:53.086Z,18.14
2017-05-31T05:49:22.076Z,16.26
2017-05-31T05:51:50.406Z,16.58
2017-05-31T05:54:19.273Z,15.60
2017-05-31T05:56:47.437Z,15.64
2017-05-31T05:59:16.491Z,17.28
2017-05-31T06:01:44.687Z,17.78
2017-05-31T06:04:13.655Z,17.48
2017-05-31T06:06:47.549Z,17.96
2017-05-31T06:09:15.895Z,18.36
2017-05-31T06:11:44.812Z,19.64
2017-05-31T06:14:13.209Z,19.04
2017-05-31T06:16:41.337Z,21.12
2017-05-31T06:19:09.555Z,19.88
2017-05-31T06:21:38.601Z,18.52
2017-05-31T06:24:06.850Z,19.26
2017-05-31T06:26:34.982Z,19.78
2017-05-31T06:29:04.018Z,17.94
2017-05-31T06:31:32.234Z,17.12
2017-05-31T06:34:00.441Z,19.65
2017-05-31T06:36:29.449Z,16.80
2017-05-31T06:38:57.655Z,16.32
2017-05-31T06:41:26.588Z,16.88
2017-05-31T06:43:54.882Z,16.77
2017-05-31T06:46:23.755Z,16.02
2017-05-31T06:48:51.926Z,15.07
2017-05-31T06:51:21.050Z,16.27
2017-05-31T06:53:49.144Z,17.28
2017-05-31T06:56:17.370Z,17.72
2017-05-31T06:58:46.418Z,17.94
2017-05-31T07:01:14.648Z,16.04
2017-05-31T07:03:42.950Z,16.20
2017-05-31T07:06:12.046Z,17.40
2017-05-31T07:08:41.056Z,17.78
2017-05-31T07:11:09.997Z,18.04
2017-05-31T07:13:39.103Z,16.06
2017-05-31T07:16:08.062Z,17.34
2017-05-31T07:18:37.005Z,16.20
2017-05-31T07:21:06.683Z,18.40
2017-05-31T07:23:35.766Z,17.94
2017-05-31T07:26:04.594Z,15.04
2017-05-31T07:28:33.653Z,16.40
2017-05-31T07:31:02.595Z,15.88
2017-05-31T07:33:30.845Z,14.56
2017-05-31T07:35:59.937Z,16.84
2017-05-31T07:51:08.099Z,16.38
2017-05-31T07:53:37.010Z,15.02
2017-05-31T07:56:05.878Z,14.94
2017-05-31T07:58:34.140Z,16.70
2017-05-31T08:01:03.051Z,17.68
2017-05-31T08:03:31.962Z,16.62
2017-05-31T08:06:01.241Z,15.40
2017-05-31T08:08:30.110Z,15.48
2017-05-31T08:10:58.978Z,16.24
2017-05-31T08:13:28.021Z,16.14
2017-05-31T08:15:56.994Z,17.66
2017-05-31T08:18:25.118Z,16.90
2017-05-31T08:20:54.224Z,16.14
2017-05-31T08:23:23.134Z,17.24
2017-05-31T08:25:51.319Z,17.38
2017-05-31T08:28:19.529Z,17.40
2017-05-31T08:30:47.702Z,18.16
2017-05-31T08:33:16.629Z,17.24
2017-05-31T08:35:45.634Z,17.00
2017-05-31T08:38:14.546Z,17.32
2017-05-31T08:40:42.721Z,16.32
2017-05-31T08:43:11.046Z,18.02
2017-05-31T08:45:39.969Z,16.42
2017-05-31T08:48:08.945Z,17.88
2017-05-31T08:50:38.026Z,16.58
2017-05-31T08:53:06.202Z,14.80
2017-05-31T08:55:34.378Z,15.82
2017-05-31T08:58:03.465Z,15.52
2017-05-31T09:00:32.338Z,15.18
2017-05-31T09:03:00.489Z,15.58
2017-05-31T09:05:28.746Z,15.28
2017-05-31T09:07:56.996Z,15.44
2017-05-31T09:10:26.030Z,13.32
2017-05-31T09:12:55.033Z,15.02
2017-05-31T09:15:23.269Z,15.90
2017-05-31T09:17:52.193Z,14.60
2017-05-31T09:20:21.253Z,13.84
2017-05-31T09:22:49.398Z,14.20
2017-05-31T09:25:18.366Z,14.72
2017-05-31T09:27:47.515Z,13.86
2017-05-31T09:30:15.606Z,14.02
2017-05-31T09:32:44.622Z,13.64
2017-05-31T09:35:13.817Z,14.74
2017-05-31T09:37:42.787Z,16.48
2017-05-31T09:40:11.791Z,13.62
2017-05-31T09:42:40.895Z,15.32
2017-05-31T09:45:09.064Z,14.16
2017-05-31T09:47:38.073Z,12.96
2017-05-31T09:50:06.428Z,14.42
2017-05-31T09:52:35.335Z,13.98
2017-05-31T09:55:03.475Z,14.00
2017-05-31T09:57:32.719Z,14.32
2017-05-31T10:12:34.067Z,14.50
2017-05-31T10:15:03.023Z,14.90
2017-05-31T10:17:32.089Z,15.52
2017-05-31T10:20:01.095Z,16.02
2017-05-31T10:22:29.479Z,14.80
2017-05-31T10:24:57.750Z,15.90
2017-05-31T10:27:26.059Z,15.74
2017-05-31T10:29:55.070Z,16.36
2017-05-31T10:32:24.123Z,14.00
2017-05-31T10:34:52.392Z,16.18
2017-05-31T10:37:21.374Z,16.00
2017-05-31T10:39:50.428Z,14.94
2017-05-31T10:42:19.566Z,15.34
2017-05-31T10:44:47.783Z,14.98
2017-05-31T10:47:16.735Z,16.10
2017-05-31T10:49:45.039Z,16.46
2017-05-31T10:52:13.976Z,15.50
2017-05-31T10:54:42.947Z,15.46
2017-05-31T10:57:12.351Z,15.68
2017-05-31T10:59:41.025Z,14.72
2017-05-31T11:02:09.266Z,16.66
2017-05-31T11:04:37.559Z,16.86
2017-05-31T11:07:06.471Z,16.00
2017-05-31T11:09:35.416Z,17.40
2017-05-31T11:12:03.783Z,17.72
2017-05-31T11:14:32.927Z,16.74
2017-05-31T11:17:01.883Z,16.74
2017-05-31T11:19:31.127Z,16.82
2017-05-31T11:22:00.035Z,15.06
2017-05-31T11:24:28.979Z,16.96
2017-05-31T11:26:58.132Z,16.00
2017-05-31T11:29:27.097Z,16.76
2017-05-31T11:31:55.403Z,16.46
2017-05-31T11:34:24.459Z,16.90
2017-05-31T11:36:53.319Z,17.24
2017-05-31T11:39:21.495Z,17.50
2017-05-31T11:41:50.571Z,17.62
2017-05-31T11:44:19.509Z,19.12
2017-05-31T11:46:48.402Z,17.18
2017-05-31T11:49:17.495Z,18.38
2017-05-31T11:51:46.477Z,20.78
2017-05-31T11:54:15.437Z,19.50
2017-05-31T11:56:44.522Z,20.74
2017-05-31T11:59:12.805Z,20.36
2017-05-31T12:01:41.654Z,22.16
2017-05-31T12:04:10.658Z,21.30
2017-05-31T12:06:39.602Z,22.84
2017-05-31T12:09:07.787Z,23.52
2017-05-31T12:11:37.406Z,25.98
2017-05-31T12:14:06.393Z,23.42
2017-05-31T12:16:35.353Z,22.50
2017-05-31T12:19:04.478Z,22.28
2017-05-31T12:21:32.825Z,24.80
2017-05-31T12:24:01.018Z,22.42
2017-05-31T12:26:29.430Z,21.68
2017-05-31T12:28:58.417Z,24.04
2017-05-31T12:31:26.706Z,24.66
2017-05-31T12:33:55.078Z,24.52
2017-05-31T12:36:23.271Z,25.12
2017-05-31T12:38:52.165Z,23.52
2017-05-31T12:41:20.573Z,23.68
2017-05-31T12:43:49.518Z,24.10
2017-05-31T12:46:18.414Z,21.52
2017-05-31T12:48:47.534Z,23.34
2017-05-31T12:51:15.742Z,22.26
2017-05-31T12:53:43.986Z,20.86
2017-05-31T12:56:12.241Z,22.34
2017-05-31T12:58:41.949Z,21.84
2017-05-31T13:01:10.889Z,22.42
2017-05-31T13:03:39.225Z,22.22
2017-05-31T13:06:08.178Z,21.48
2017-05-31T13:08:36.369Z,22.90
2017-05-31T13:11:05.358Z,22.66
2017-05-31T13:13:33.510Z,24.58
2017-05-31T13:16:02.449Z,23.32
2017-05-31T13:18:31.529Z,22.48
2017-05-31T13:21:00.482Z,22.04
2017-05-31T13:23:28.757Z,24.76
2017-05-31T13:25:57.829Z,25.62
2017-05-31T13:28:26.729Z,26.26
2017-05-31T13:30:55.646Z,24.36
2017-05-31T13:33:24.762Z,23.68
2017-05-31T13:35:53.709Z,25.24
2017-05-31T13:38:22.646Z,25.28
2017-05-31T13:40:51.020Z,25.70
2017-05-31T13:43:19.918Z,26.74
2017-05-31T13:45:48.814Z,24.96
2017-05-31T13:48:17.897Z,25.76
2017-05-31T13:50:46.845Z,24.26
2017-05-31T13:53:15.846Z,25.74
2017-05-31T13:55:44.878Z,25.42
2017-05-31T13:58:13.094Z,24.78
2017-05-31T14:00:49.082Z,25.26
2017-05-31T14:03:17.227Z,25.88
2017-05-31T14:05:46.083Z,27.84
2017-05-31T14:08:15.158Z,26.14
2017-05-31T14:10:44.098Z,26.48
2017-05-31T14:13:12.258Z,26.88
2017-05-31T14:15:41.398Z,26.00
2017-05-31T14:18:09.560Z,27.78
2017-05-31T14:20:37.730Z,30.28
2017-05-31T14:23:06.899Z,31.76
2017-05-31T14:25:35.770Z,30.94
2017-05-31T14:28:04.842Z,25.44
2017-05-31T14:30:33.224Z,26.68
2017-05-31T14:33:01.426Z,26.58
2017-05-31T14:35:29.622Z,28.80
2017-05-31T14:37:58.674Z,28.32
2017-05-31T14:40:26.882Z,27.08
2017-05-31T14:42:55.738Z,27.66
2017-05-31T14:45:24.126Z,25.64
2017-05-31T14:47:53.165Z,24.88
2017-05-31T14:50:21.466Z,26.92
2017-05-31T14:52:50.602Z,26.28
2017-05-31T14:55:19.609Z,25.06
2017-05-31T14:57:48.517Z,23.26
2017-05-31T15:00:16.865Z,23.66
2017-05-31T15:02:45.974Z,25.30
2017-05-31T15:05:14.203Z,23.32
2017-05-31T15:07:43.198Z,21.96
2017-05-31T15:10:12.210Z,22.08
2017-05-31T15:12:40.478Z,24.02
2017-05-31T15:15:08.883Z,20.50
2017-05-31T15:17:37.829Z,22.66
2017-05-31T15:20:06.826Z,20.42
2017-05-31T15:22:35.869Z,21.40
2017-05-31T15:25:04.285Z,22.02
2017-05-31T15:27:33.366Z,22.66
2017-05-31T15:30:02.397Z,21.54
2017-05-31T15:32:31.329Z,21.08
2017-05-31T15:34:59.482Z,20.88
2017-05-31T15:37:28.531Z,20.64
2017-05-31T15:39:57.578Z,19.92
2017-05-31T15:42:25.838Z,21.00
2017-05-31T15:44:55.053Z,20.98
2017-05-31T15:47:23.334Z,21.82
2017-05-31T15:49:52.245Z,20.68
2017-05-31T15:52:21.385Z,21.60
2017-05-31T15:54:50.407Z,20.20
2017-05-31T15:57:18.689Z,20.28
2017-05-31T15:59:47.952Z,19.38
2017-05-31T16:02:16.225Z,20.32
2017-05-31T16:04:45.328Z,20.48
2017-05-31T16:07:14.406Z,19.26
2017-05-31T16:09:43.348Z,20.58
2017-05-31T16:12:11.857Z,19.26
2017-05-31T16:14:41.062Z,19.88
2017-05-31T16:17:09.482Z,21.60
2017-05-31T16:19:37.697Z,19.12
2017-05-31T16:22:06.850Z,18.96
2017-05-31T16:24:35.841Z,21.30
2017-05-31T16:27:04.876Z,19.86
2017-05-31T16:29:34.145Z,20.62
2017-05-31T16:32:03.062Z,20.14
2017-05-31T16:34:32.101Z,19.60
2017-05-31T16:37:00.518Z,18.82
2017-05-31T16:39:29.606Z,20.10
2017-05-31T16:41:58.548Z,19.98
2017-05-31T16:44:27.664Z,19.10
2017-05-31T16:46:56.702Z,20.60
2017-05-31T16:49:25.643Z,18.98
2017-05-31T16:51:54.894Z,18.86
2017-05-31T16:54:23.902Z,19.48
2017-05-31T16:56:52.802Z,21.20
2017-05-31T16:59:21.850Z,18.42
2017-05-31T17:01:50.046Z,17.40
2017-05-31T17:04:18.335Z,19.22
2017-05-31T17:06:47.361Z,20.64
2017-05-31T17:09:15.612Z,17.80
2017-05-31T17:11:44.558Z,18.58
2017-05-31T17:14:12.883Z,20.04
2017-05-31T17:16:41.826Z,18.56
2017-05-31T17:19:10.137Z,21.30
2017-05-31T17:21:39.275Z,18.78
2017-05-31T17:24:09.054Z,19.88
2017-05-31T17:26:38.066Z,19.32
2017-05-31T17:29:07.214Z,17.88
2017-05-31T17:31:35.639Z,18.62
2017-05-31T17:34:04.518Z,18.60
2017-05-31T17:36:33.741Z,18.96
2017-05-31T17:39:02.738Z,18.42
2017-05-31T17:41:30.945Z,19.90
2017-05-31T17:43:59.985Z,18.22
2017-05-31T17:46:28.929Z,18.84
2017-05-31T17:48:57.126Z,19.68
2017-05-31T17:51:26.158Z,17.64
2017-05-31T17:53:55.097Z,20.80
2017-05-31T17:56:24.786Z,17.64
2017-05-31T17:58:53.863Z,16.54
2017-05-31T18:01:22.798Z,18.48
2017-05-31T18:03:51.737Z,18.10
2017-05-31T18:06:20.058Z,19.06
2017-05-31T18:08:55.170Z,18.26
2017-05-31T18:11:23.450Z,19.96
2017-05-31T18:13:52.489Z,21.56
2017-05-31T18:16:21.470Z,19.74
2017-05-31T18:18:50.728Z,19.68
2017-05-31T18:21:19.051Z,21.26
2017-05-31T18:23:48.202Z,20.24
2017-05-31T18:26:16.690Z,20.10
2017-05-31T18:28:45.681Z,27.58
2017-05-31T18:31:14.701Z,32.10
2017-05-31T18:33:43.929Z,29.70
2017-05-31T18:36:12.938Z,30.16
2017-05-31T18:38:41.870Z,29.52
2017-05-31T18:41:10.250Z,29.32
2017-05-31T18:43:38.457Z,31.52
2017-05-31T18:46:06.606Z,35.24
2017-05-31T18:48:35.765Z,31.02
2017-05-31T18:51:04.666Z,32.04
2017-05-31T18:53:32.953Z,30.36
2017-05-31T18:56:02.017Z,27.48
2017-05-31T18:58:30.917Z,28.26
2017-05-31T19:00:59.981Z,28.80
2017-05-31T19:03:29.121Z,29.74
2017-05-31T19:05:57.413Z,28.52
2017-05-31T19:08:25.635Z,26.24
2017-05-31T19:10:54.928Z,27.64
2017-05-31T19:13:23.830Z,29.24
2017-05-31T19:15:52.778Z,23.54
2017-05-31T19:18:21.898Z,20.42
2017-05-31T19:20:50.838Z,18.82
2017-05-31T19:23:19.806Z,19.36
2017-05-31T19:25:48.886Z,19.72
2017-05-31T19:28:17.778Z,20.60
2017-05-31T19:30:45.998Z,20.22
2017-05-31T19:33:14.283Z,20.48
2017-05-31T19:35:43.427Z,19.98
2017-05-31T19:38:12.393Z,17.22
2017-05-31T19:40:41.522Z,19.18
2017-05-31T19:43:10.512Z,18.62
2017-05-31T19:45:38.750Z,19.18
2017-05-31T19:48:07.766Z,19.18
2017-05-31T19:50:36.698Z,18.72
2017-05-31T19:53:05.598Z,18.56
2017-05-31T19:55:33.973Z,19.22
2017-05-31T19:58:02.994Z,19.66
2017-05-31T20:00:31.989Z,19.22
2017-05-31T20:03:01.101Z,19.72
2017-05-31T20:05:30.085Z,19.76
2017-05-31T20:07:58.349Z,19.90
2017-05-31T20:10:26.650Z,19.24
2017-05-31T20:12:54.806Z,19.10
2017-05-31T20:15:23.754Z,19.62
2017-05-31T20:17:52.078Z,19.58
2017-05-31T20:20:21.018Z,20.74
2017-05-31T20:22:49.317Z,19.92
2017-05-31T20:25:18.393Z,19.88
2017-05-31T20:27:46.633Z,20.08
2017-05-31T20:30:15.798Z,19.64
2017-05-31T20:32:44.836Z,20.96
2017-05-31T20:35:13.085Z,19.96
2017-05-31T20:37:41.414Z,21.22
2017-05-31T20:40:10.529Z,20.86
2017-05-31T20:42:39.469Z,18.60
2017-05-31T20:45:08.409Z,21.60
2017-05-31T20:47:36.746Z,21.50
2017-05-31T20:50:04.989Z,21.66
2017-05-31T20:52:33.921Z,23.04
2017-05-31T20:55:02.990Z,23.42
2017-05-31T20:57:31.921Z,21.80
2017-05-31T21:00:01.006Z,22.74
2017-05-31T21:02:30.037Z,21.86
2017-05-31T21:04:58.245Z,22.50
2017-05-31T21:07:27.234Z,22.36
2017-05-31T21:09:56.395Z,22.60
2017-05-31T21:12:25.294Z,22.50
2017-05-31T21:14:54.182Z,22.96
2017-05-31T21:17:23.294Z,24.92
2017-05-31T21:19:52.166Z,22.54
2017-05-31T21:22:21.094Z,23.46
2017-05-31T21:24:49.394Z,23.48
2017-05-31T21:27:18.409Z,23.02
2017-05-31T21:29:46.557Z,22.76
2017-05-31T21:32:15.662Z,23.20
2017-05-31T21:34:44.594Z,22.62
2017-05-31T21:37:13.585Z,22.26
2017-05-31T21:39:42.878Z,22.96
2017-05-31T21:42:11.898Z,22.90
2017-05-31T21:44:40.082Z,22.24
2017-05-31T21:47:08.446Z,23.02
2017-05-31T21:49:37.441Z,25.30
2017-05-31T21:52:05.698Z,22.28
2017-05-31T21:54:34.840Z,23.64
2017-05-31T21:57:03.805Z,23.98
2017-05-31T21:59:32.978Z,23.18
2017-05-31T22:02:02.138Z,21.86
2017-05-31T22:04:30.422Z,23.52
2017-05-31T22:06:58.662Z,24.10
2017-05-31T22:09:26.973Z,24.32
2017-05-31T22:11:56.006Z,23.90
2017-05-31T22:14:24.926Z,22.46
2017-05-31T22:16:54.073Z,22.52
2017-05-31T22:19:22.349Z,22.28
2017-05-31T22:21:51.402Z,20.40
2017-05-31T22:24:20.501Z,22.40
2017-05-31T22:26:49.939Z,23.30
2017-05-31T22:29:18.169Z,22.50
2017-05-31T22:31:47.322Z,22.80
2017-05-31T22:34:16.254Z,22.72
2017-05-31T22:36:45.221Z,25.04
2017-05-31T22:39:14.410Z,23.52
2017-05-31T22:41:42.841Z,24.20
2017-05-31T22:44:11.105Z,23.16
2017-05-31T22:46:40.178Z,21.08
2017-05-31T22:49:08.565Z,22.80
2017-05-31T22:51:37.521Z,23.30
2017-05-31T22:54:06.670Z,23.88
2017-05-31T22:56:36.077Z,23.70
2017-05-31T22:59:05.032Z,24.00
2017-05-31T23:01:34.214Z,22.00
2017-05-31T23:04:03.233Z,25.18
2017-05-31T23:06:31.560Z,20.72
2017-05-31T23:09:00.662Z,23.88
2017-05-31T23:11:29.675Z,22.00
2017-05-31T23:13:57.950Z,22.04
2017-05-31T23:16:27.050Z,22.76
2017-05-31T23:18:55.399Z,24.18
2017-05-31T23:21:23.634Z,22.90
2017-05-31T23:23:52.021Z,22.60
2017-05-31T23:26:20.994Z,22.30
2017-05-31T23:28:49.926Z,24.60
2017-05-31T23:31:19.066Z,24.30
2017-05-31T23:33:47.293Z,24.02
2017-05-31T23:36:16.305Z,23.36
2017-05-31T23:38:44.746Z,25.16
2017-05-31T23:41:13.702Z,22.50
2017-05-31T23:43:42.174Z,24.90
2017-05-31T23:46:11.317Z,23.06
2017-05-31T23:48:40.234Z,22.98
2017-05-31T23:51:09.234Z,23.02
2017-05-31T23:53:38.370Z,22.76
2017-05-31T23:56:06.630Z,23.18
2017-05-31T23:58:35.598Z,22.24
